createdAt,value
2023-01-07T00:01:39.986Z,100345.22
2023-01-07T00:04:13.331Z,100347.94
2023-01-07T00:06:43.236Z,100361.53
2023-01-07T00:09:16.860Z,100359.69
2023-01-07T00:11:45.456Z,100359.38
2023-01-07T00:14:14.551Z,100354.44
2023-01-07T00:16:42.697Z,100353.47
2023-01-07T00:19:14.948Z,100353.91
2023-01-07T00:21:43.105Z,100355.19
2023-01-07T00:24:12.245Z,100367.47
2023-01-07T00:26:40.688Z,100366.56
2023-01-07T00:29:09.548Z,100374.91
2023-01-07T00:31:40.836Z,100365.84
2023-01-07T00:34:09.517Z,100370.56
2023-01-07T00:36:42.935Z,100373.53
2023-01-07T00:39:18.071Z,100373.91
2023-01-07T00:42:04.663Z,100372.16
2023-01-07T00:44:32.695Z,100365.47
2023-01-07T00:47:00.923Z,100375.31
2023-01-07T00:49:28.500Z,100366.66
2023-01-07T00:51:56.029Z,100365.63
2023-01-07T00:54:24.644Z,100374.91
2023-01-07T00:56:52.189Z,100370.50
2023-01-07T00:59:19.827Z,100370.50
2023-01-07T01:01:47.785Z,100368.13
2023-01-07T01:04:15.764Z,100369.16
2023-01-07T01:06:43.278Z,100372.06
2023-01-07T01:09:10.762Z,100382.84
2023-01-07T01:11:38.266Z,100373.38
2023-01-07T01:14:05.756Z,100366.16
2023-01-07T01:16:33.207Z,100371.13
2023-01-07T01:19:00.712Z,100378.75
2023-01-07T01:21:28.590Z,100378.84
2023-01-07T01:23:56.113Z,100377.09
2023-01-07T01:26:23.592Z,100379.75
2023-01-07T01:28:51.017Z,100382.06
2023-01-07T01:31:23.039Z,100375.13
2023-01-07T01:33:56.658Z,100370.03
2023-01-07T01:36:24.982Z,100379.63
2023-01-07T01:38:55.347Z,100382.00
2023-01-07T01:41:23.011Z,100380.13
2023-01-07T01:43:53.113Z,100383.00
2023-01-07T01:46:35.716Z,100379.53
2023-01-07T01:49:24.290Z,100373.13
2023-01-07T01:52:14.006Z,100366.84
2023-01-07T01:54:45.945Z,100366.19
2023-01-07T01:57:13.901Z,100378.00
2023-01-07T01:59:45.707Z,100376.28
2023-01-07T02:02:29.908Z,100364.75
2023-01-07T02:04:58.322Z,100374.50
2023-01-07T02:07:25.910Z,100373.38
2023-01-07T02:10:10.399Z,100370.59
2023-01-07T02:13:17.674Z,100370.06
2023-01-07T02:16:03.861Z,100370.75
2023-01-07T02:18:51.890Z,100363.69
2023-01-07T02:21:56.873Z,100373.91
2023-01-07T02:24:30.216Z,100376.00
2023-01-07T02:27:51.210Z,100376.03
2023-01-07T02:30:48.767Z,100359.91
2023-01-07T02:33:44.556Z,100364.72
2023-01-07T02:36:30.574Z,100373.25
2023-01-07T02:39:26.170Z,100377.06
2023-01-07T02:42:04.472Z,100381.75
2023-01-07T02:44:59.952Z,100391.34
2023-01-07T02:47:39.840Z,100387.28
2023-01-07T02:50:09.381Z,100383.75
2023-01-07T02:52:37.897Z,100391.34
2023-01-07T02:55:23.000Z,100389.41
2023-01-07T02:58:22.669Z,100390.66
2023-01-07T03:01:28.613Z,100388.22
2023-01-07T03:04:40.601Z,100381.16
2023-01-07T03:07:16.401Z,100380.75
2023-01-07T03:10:11.619Z,100379.72
2023-01-07T03:13:14.380Z,100391.00
2023-01-07T03:24:09.337Z,100396.63
2023-01-07T03:26:46.607Z,100400.25
2023-01-07T03:29:17.928Z,100392.84
2023-01-07T03:32:19.910Z,100394.75
2023-01-07T03:34:48.351Z,100397.66
2023-01-07T03:37:20.682Z,100398.00
2023-01-07T03:39:49.034Z,100404.19
2023-01-07T03:42:42.387Z,100404.06
2023-01-07T03:45:20.336Z,100401.03
2023-01-07T03:47:52.417Z,100404.06
2023-01-07T03:50:21.466Z,100402.03
2023-01-07T03:52:50.954Z,100393.94
2023-01-07T03:55:20.320Z,100391.13
2023-01-07T03:57:49.684Z,100389.91
2023-01-07T04:00:18.094Z,100394.75
2023-01-07T04:02:53.611Z,100405.66
2023-01-07T04:05:25.469Z,100395.41
2023-01-07T04:07:53.407Z,100400.91
2023-01-07T04:10:21.795Z,100404.19
2023-01-07T04:12:49.313Z,100404.72
2023-01-07T04:15:16.958Z,100411.25
2023-01-07T04:17:44.491Z,100419.34
2023-01-07T04:20:12.365Z,100432.16
2023-01-07T04:22:39.890Z,100426.31
2023-01-07T04:25:08.883Z,100423.19
2023-01-07T04:27:37.937Z,100416.09
2023-01-07T04:30:06.567Z,100426.09
2023-01-07T04:32:34.973Z,100425.75
2023-01-07T04:35:02.820Z,100427.53
2023-01-07T04:37:31.487Z,100422.94
2023-01-07T04:39:59.455Z,100422.16
2023-01-07T04:42:27.305Z,100430.38
2023-01-07T04:44:55.196Z,100424.63
2023-01-07T04:47:23.356Z,100435.75
2023-01-07T04:49:51.512Z,100427.28
2023-01-07T04:52:19.010Z,100426.72
2023-01-07T04:54:46.957Z,100423.19
2023-01-07T04:57:14.673Z,100428.22
2023-01-07T04:59:44.520Z,100429.53
2023-01-07T05:02:12.148Z,100430.53
2023-01-07T05:04:40.172Z,100427.84
2023-01-07T05:07:09.621Z,100431.81
2023-01-07T05:09:37.203Z,100435.53
2023-01-07T05:12:05.124Z,100432.47
2023-01-07T05:14:32.954Z,100428.09
2023-01-07T05:17:00.620Z,100439.22
2023-01-07T05:19:30.015Z,100441.78
2023-01-07T05:21:58.560Z,100447.97
2023-01-07T05:24:27.174Z,100443.28
2023-01-07T05:26:54.840Z,100436.41
2023-01-07T05:29:23.072Z,100441.13
2023-01-07T05:31:50.585Z,100433.03
2023-01-07T05:34:18.766Z,100438.97
2023-01-07T05:36:46.753Z,100450.47
2023-01-07T05:39:15.006Z,100452.97
2023-01-07T05:41:43.089Z,100444.47
2023-01-07T05:44:11.262Z,100454.59
2023-01-07T05:46:38.711Z,100452.59
2023-01-07T05:49:09.055Z,100457.44
2023-01-07T05:51:36.866Z,100461.69
2023-01-07T05:54:04.910Z,100472.31
2023-01-07T05:56:32.423Z,100461.84
2023-01-07T05:58:59.877Z,100465.97
2023-01-07T06:01:28.836Z,100470.97
2023-01-07T06:03:57.512Z,100465.06
2023-01-07T06:06:25.044Z,100477.63
2023-01-07T06:08:52.526Z,100479.59
2023-01-07T06:11:20.110Z,100472.16
2023-01-07T06:13:49.187Z,100463.97
2023-01-07T06:16:16.879Z,100475.91
2023-01-07T06:18:44.384Z,100478.28
2023-01-07T06:21:12.011Z,100484.13
2023-01-07T06:23:39.582Z,100491.56
2023-01-07T06:26:07.053Z,100479.91
2023-01-07T06:28:35.465Z,100485.13
2023-01-07T06:31:03.078Z,100484.00
2023-01-07T06:33:32.649Z,100482.34
2023-01-07T06:36:00.857Z,100479.94
2023-01-07T06:38:28.337Z,100479.84
2023-01-07T06:40:55.859Z,100483.88
2023-01-07T06:43:25.561Z,100489.59
2023-01-07T06:45:53.242Z,100485.50
2023-01-07T06:48:20.737Z,100489.38
2023-01-07T06:50:48.213Z,100485.59
2023-01-07T06:53:16.222Z,100485.56
2023-01-07T06:55:51.949Z,100490.13
2023-01-07T06:58:19.800Z,100492.47
2023-01-07T07:00:47.439Z,100484.31
2023-01-07T07:03:14.954Z,100491.63
2023-01-07T07:05:44.338Z,100489.78
2023-01-07T07:08:11.858Z,100490.72
2023-01-07T07:10:39.566Z,100492.84
2023-01-07T07:13:07.100Z,100494.34
2023-01-07T07:15:34.605Z,100497.59
2023-01-07T07:18:03.437Z,100505.56
2023-01-07T07:20:32.484Z,100499.13
2023-01-07T07:23:01.900Z,100498.78
2023-01-07T07:25:29.757Z,100498.47
2023-01-07T07:27:57.240Z,100502.38
2023-01-07T07:30:47.286Z,100505.94
2023-01-07T07:33:14.876Z,100505.34
2023-01-07T07:35:43.741Z,100511.56
2023-01-07T07:38:11.412Z,100505.28
2023-01-07T07:40:38.948Z,100508.25
2023-01-07T07:43:11.628Z,100513.91
2023-01-07T07:45:41.562Z,100507.75
2023-01-07T07:48:10.799Z,100510.13
2023-01-07T07:50:38.386Z,100512.88
2023-01-07T07:53:09.998Z,100512.94
2023-01-07T07:55:39.601Z,100516.28
2023-01-07T07:58:07.262Z,100513.81
2023-01-07T08:00:34.790Z,100503.13
2023-01-07T08:03:02.554Z,100504.59
2023-01-07T08:05:31.247Z,100497.94
2023-01-07T08:07:58.849Z,100502.47
2023-01-07T08:10:30.053Z,100502.69
2023-01-07T08:12:57.725Z,100502.50
2023-01-07T08:15:25.317Z,100502.56
2023-01-07T08:18:07.179Z,100502.25
2023-01-07T08:20:37.759Z,100501.22
2023-01-07T08:23:08.034Z,100496.84
2023-01-07T08:25:37.237Z,100494.75
2023-01-07T08:28:05.306Z,100501.28
2023-01-07T08:30:33.143Z,100502.84
2023-01-07T08:33:03.339Z,100504.38
2023-01-07T08:35:31.100Z,100501.47
2023-01-07T08:38:09.136Z,100501.91
2023-01-07T08:40:47.017Z,100497.34
2023-01-07T08:43:15.306Z,100502.34
2023-01-07T08:45:49.787Z,100491.06
2023-01-07T08:48:17.397Z,100494.13
2023-01-07T08:50:48.645Z,100494.97
2023-01-07T08:53:16.231Z,100489.50
2023-01-07T08:55:43.718Z,100490.69
2023-01-07T08:58:11.344Z,100495.63
2023-01-07T09:00:40.408Z,100486.34
2023-01-07T09:03:07.954Z,100482.69
2023-01-07T09:05:35.765Z,100473.66
2023-01-07T09:08:03.866Z,100468.13
2023-01-07T09:10:31.682Z,100475.00
2023-01-07T09:12:59.226Z,100471.13
2023-01-07T09:15:26.784Z,100474.94
2023-01-07T09:17:54.348Z,100452.78
2023-01-07T09:20:22.214Z,100460.63
2023-01-07T09:22:49.750Z,100459.19
2023-01-07T09:25:17.396Z,100456.31
2023-01-07T09:27:45.887Z,100451.25
2023-01-07T09:30:13.551Z,100443.25
2023-01-07T09:32:43.088Z,100446.13
2023-01-07T09:35:11.670Z,100440.09
2023-01-07T09:37:39.358Z,100433.97
2023-01-07T09:40:09.090Z,100430.75
2023-01-07T09:42:44.128Z,100424.47
2023-01-07T09:45:16.838Z,100419.72
2023-01-07T09:47:48.466Z,100412.91
2023-01-07T09:50:45.386Z,100404.16
2023-01-07T09:53:37.962Z,100404.50
2023-01-07T09:56:26.950Z,100395.47
2023-01-07T09:59:15.424Z,100392.34
2023-01-07T10:56:37.460Z,100305.63
2023-01-07T10:59:05.942Z,100298.97
2023-01-07T11:01:40.409Z,100298.69
2023-01-07T11:04:16.669Z,100290.75
2023-01-07T11:06:56.439Z,100287.16
2023-01-07T11:09:35.074Z,100291.63
2023-01-07T11:12:29.242Z,100294.16
2023-01-07T11:14:59.893Z,100284.00
2023-01-07T11:17:53.509Z,100278.44
2023-01-07T11:20:46.857Z,100278.72
2023-01-07T11:23:32.240Z,100271.56
2023-01-07T11:26:23.732Z,100267.28
2023-01-07T11:28:55.197Z,100267.25
2023-01-07T11:31:51.992Z,100262.88
2023-01-07T11:35:01.792Z,100250.75
2023-01-07T11:37:41.131Z,100241.97
2023-01-07T11:40:14.824Z,100243.31
2023-01-07T11:42:56.259Z,100243.41
2023-01-07T11:46:19.588Z,100248.78
2023-01-07T11:49:02.769Z,100241.84
2023-01-07T11:52:00.207Z,100237.13
2023-01-07T11:54:31.322Z,100240.44
2023-01-07T11:57:25.501Z,100231.03
2023-01-07T12:00:19.529Z,100232.56
2023-01-07T12:03:01.961Z,100226.06
2023-01-07T12:05:31.796Z,100223.56
2023-01-07T12:07:59.826Z,100218.97
2023-01-07T12:10:39.935Z,100212.50
2023-01-07T12:13:21.799Z,100206.91
2023-01-07T12:16:02.034Z,100205.00
2023-01-07T12:18:47.986Z,100206.75
2023-01-07T12:21:36.219Z,100205.41
2023-01-07T12:24:49.856Z,100198.34
2023-01-07T12:27:50.999Z,100197.16
2023-01-07T12:30:55.823Z,100193.34
2023-01-07T12:34:10.130Z,100196.25
2023-01-07T12:37:01.229Z,100190.06
2023-01-07T12:39:47.306Z,100189.47
2023-01-07T12:42:32.543Z,100187.34
2023-01-07T12:45:07.493Z,100181.78
2023-01-07T12:47:50.585Z,100186.75
2023-01-07T12:50:45.468Z,100177.28
2023-01-07T12:53:41.272Z,100178.31
2023-01-07T12:56:52.933Z,100178.59
2023-01-07T12:59:45.579Z,100176.00
2023-01-07T13:02:30.883Z,100179.94
2023-01-07T13:05:39.520Z,100175.44
2023-01-07T13:08:24.136Z,100175.69
2023-01-07T13:11:18.028Z,100176.91
2023-01-07T13:13:55.382Z,100170.69
2023-01-07T13:16:24.616Z,100176.63
2023-01-07T13:18:52.286Z,100174.78
2023-01-07T13:21:21.863Z,100173.13
2023-01-07T13:24:13.075Z,100173.63
2023-01-07T13:26:56.704Z,100173.66
2023-01-07T13:30:05.498Z,100168.31
2023-01-07T13:33:16.055Z,100174.34
2023-01-07T13:36:04.951Z,100172.22
2023-01-07T13:39:00.954Z,100170.28
2023-01-07T13:42:08.640Z,100176.97
2023-01-07T13:44:36.117Z,100175.19
2023-01-07T13:47:05.795Z,100173.72
2023-01-07T13:49:35.701Z,100175.75
2023-01-07T13:52:26.083Z,100175.13
2023-01-07T13:54:58.163Z,100174.09
2023-01-07T13:57:31.871Z,100167.16
2023-01-07T14:00:05.307Z,100170.91
2023-01-07T14:03:17.450Z,100169.16
2023-01-07T14:05:45.453Z,100172.13
2023-01-07T14:08:12.938Z,100174.97
2023-01-07T14:10:40.672Z,100176.03
2023-01-07T14:13:50.328Z,100166.84
2023-01-07T14:16:44.706Z,100170.75
2023-01-07T14:19:21.946Z,100178.34
2023-01-07T14:22:22.158Z,100180.00
2023-01-07T14:25:01.816Z,100183.06
2023-01-07T14:27:41.041Z,100182.97
2023-01-07T14:30:31.253Z,100177.59
2023-01-07T14:33:06.984Z,100180.22
2023-01-07T14:35:40.746Z,100179.97
2023-01-07T14:38:32.537Z,100177.22
2023-01-07T14:41:09.370Z,100170.69
2023-01-07T14:43:45.910Z,100171.34
2023-01-07T14:46:49.528Z,100169.31
2023-01-07T14:49:54.256Z,100166.00
2023-01-07T14:52:58.836Z,100169.00
2023-01-07T14:55:38.543Z,100174.97
2023-01-07T14:58:34.542Z,100171.38
2023-01-07T15:01:17.126Z,100172.59
2023-01-07T15:04:02.258Z,100174.34
2023-01-07T15:06:41.944Z,100171.50
2023-01-07T15:09:33.218Z,100179.28
2023-01-07T15:12:32.674Z,100173.75
2023-01-07T15:15:36.082Z,100177.03
2023-01-07T15:18:08.840Z,100170.03
2023-01-07T15:21:24.060Z,100179.63
2023-01-07T15:24:28.786Z,100173.63
2023-01-07T15:27:06.477Z,100179.16
2023-01-07T15:30:24.059Z,100183.88
2023-01-07T15:33:30.829Z,100181.47
2023-01-07T15:35:58.817Z,100187.38
2023-01-07T15:38:46.094Z,100181.47
2023-01-07T15:41:26.800Z,100183.34
2023-01-07T15:43:57.035Z,100190.66
2023-01-07T15:46:26.771Z,100188.63
2023-01-07T15:49:29.566Z,100186.88
2023-01-07T15:52:00.562Z,100190.63
2023-01-07T15:54:28.169Z,100189.63
2023-01-07T15:57:09.911Z,100190.03
2023-01-07T15:59:50.221Z,100192.69
2023-01-07T16:02:32.924Z,100193.31
2023-01-07T16:05:27.782Z,100187.00
2023-01-07T16:08:00.256Z,100190.72
2023-01-07T16:10:35.146Z,100195.56
2023-01-07T16:13:18.530Z,100197.78
2023-01-07T16:15:46.113Z,100195.56
2023-01-07T16:18:14.776Z,100191.28
2023-01-07T16:20:56.957Z,100192.59
2023-01-07T16:23:34.438Z,100191.13
2023-01-07T16:26:20.216Z,100185.47
2023-01-07T16:29:06.619Z,100193.13
2023-01-07T16:31:36.392Z,100189.56
2023-01-07T16:34:25.795Z,100198.03
2023-01-07T16:36:58.296Z,100195.81
2023-01-07T16:39:34.308Z,100197.53
2023-01-07T16:42:20.959Z,100197.13
2023-01-07T16:44:49.661Z,100197.47
2023-01-07T16:47:24.066Z,100206.44
2023-01-07T16:50:13.635Z,100204.94
2023-01-07T16:52:57.380Z,100207.00
2023-01-07T16:56:14.723Z,100207.81
2023-01-07T16:58:55.424Z,100214.41
2023-01-07T17:01:35.482Z,100208.66
2023-01-07T17:04:10.232Z,100205.47
2023-01-07T17:06:43.634Z,100208.28
2023-01-07T17:09:35.611Z,100217.41
2023-01-07T17:12:05.094Z,100220.47
2023-01-07T17:14:38.188Z,100210.59
2023-01-07T17:17:19.540Z,100223.56
2023-01-07T17:19:52.995Z,100215.59
2023-01-07T17:22:50.119Z,100222.84
2023-01-07T17:25:28.846Z,100220.91
2023-01-07T17:28:07.503Z,100223.84
2023-01-07T17:30:36.896Z,100225.88
2023-01-07T17:33:05.870Z,100227.94
2023-01-07T17:35:33.871Z,100226.19
2023-01-07T17:38:01.865Z,100231.16
2023-01-07T17:40:30.260Z,100223.31
2023-01-07T17:43:16.434Z,100233.41
2023-01-07T17:45:45.234Z,100234.25
2023-01-07T17:48:14.653Z,100236.72
2023-01-07T17:50:43.738Z,100239.13
2023-01-07T17:53:25.753Z,100242.88
2023-01-07T17:55:54.428Z,100236.59
2023-01-07T17:58:30.469Z,100237.66
2023-01-07T18:01:00.922Z,100243.19
2023-01-07T18:03:29.268Z,100241.34
2023-01-07T18:05:57.757Z,100238.97
2023-01-07T18:08:26.803Z,100245.00
2023-01-07T18:11:16.456Z,100247.63
2023-01-07T18:13:43.979Z,100259.88
2023-01-07T18:16:14.350Z,100253.09
2023-01-07T18:18:42.131Z,100257.13
2023-01-07T18:21:13.257Z,100259.19
2023-01-07T18:23:40.888Z,100251.91
2023-01-07T18:26:09.049Z,100256.81
2023-01-07T18:28:36.520Z,100255.19
2023-01-07T18:31:04.728Z,100259.88
2023-01-07T18:33:33.711Z,100253.91
2023-01-07T18:36:01.940Z,100259.09
2023-01-07T18:38:30.412Z,100260.13
2023-01-07T18:41:00.236Z,100256.25
2023-01-07T18:43:30.334Z,100260.69
2023-01-07T18:46:00.869Z,100255.47
2023-01-07T18:48:31.220Z,100266.41
2023-01-07T18:51:00.132Z,100260.44
2023-01-07T18:53:29.919Z,100266.16
2023-01-07T18:56:02.534Z,100263.31
2023-01-07T18:58:30.252Z,100266.72
2023-01-07T19:01:06.667Z,100273.50
2023-01-07T19:03:37.158Z,100265.91
2023-01-07T19:06:15.145Z,100271.66
2023-01-07T19:08:42.702Z,100259.94
2023-01-07T19:11:16.936Z,100269.84
2023-01-07T19:13:46.290Z,100260.69
2023-01-07T19:16:14.859Z,100261.72
2023-01-07T19:18:44.182Z,100268.47
2023-01-07T19:21:17.196Z,100258.59
2023-01-07T19:23:48.961Z,100261.41
2023-01-07T19:26:16.546Z,100265.81
2023-01-07T19:28:44.186Z,100266.34
2023-01-07T19:31:11.722Z,100262.47
2023-01-07T19:33:41.473Z,100266.34
2023-01-07T19:36:13.290Z,100260.81
2023-01-07T19:38:47.302Z,100263.94
2023-01-07T19:41:21.228Z,100264.47
2023-01-07T19:43:52.576Z,100271.75
2023-01-07T19:46:20.780Z,100264.94
2023-01-07T19:48:48.783Z,100262.91
2023-01-07T19:51:20.739Z,100267.53
2023-01-07T19:53:48.269Z,100272.69
2023-01-07T19:56:15.835Z,100264.22
2023-01-07T19:58:43.522Z,100265.19
2023-01-07T20:01:17.978Z,100271.22
2023-01-07T20:03:47.402Z,100268.06
2023-01-07T20:06:18.516Z,100268.19
2023-01-07T20:08:50.921Z,100268.28
2023-01-07T20:11:19.509Z,100268.06
2023-01-07T20:13:48.498Z,100273.75
2023-01-07T20:16:22.703Z,100273.16
2023-01-07T20:18:53.429Z,100270.03
2023-01-07T20:21:25.921Z,100274.44
2023-01-07T20:23:57.069Z,100279.00
2023-01-07T20:26:30.548Z,100278.63
2023-01-07T20:28:59.976Z,100285.25
2023-01-07T20:31:32.414Z,100282.97
2023-01-07T20:34:02.363Z,100285.75
2023-01-07T20:36:33.429Z,100290.16
2023-01-07T20:39:06.314Z,100293.72
2023-01-07T20:41:39.721Z,100293.94
2023-01-07T20:44:20.033Z,100295.84
2023-01-07T20:46:48.924Z,100287.75
2023-01-07T20:49:19.841Z,100293.63
2023-01-07T20:51:50.835Z,100290.44
2023-01-07T20:54:21.787Z,100298.88
2023-01-07T20:56:50.808Z,100298.66
2023-01-07T20:59:21.378Z,100307.72
2023-01-07T21:01:50.227Z,100303.00
2023-01-07T21:04:17.857Z,100303.63
2023-01-07T21:06:48.069Z,100306.06
2023-01-07T21:09:20.150Z,100312.91
2023-01-07T21:11:47.718Z,100304.41
2023-01-07T21:14:16.376Z,100305.63
2023-01-07T21:16:48.492Z,100304.88
2023-01-07T21:19:16.031Z,100304.81
2023-01-07T21:21:45.755Z,100305.34
2023-01-07T21:24:17.589Z,100309.97
2023-01-07T21:26:45.224Z,100304.81
2023-01-07T21:29:14.108Z,100303.88
2023-01-07T21:31:42.404Z,100299.34
2023-01-07T21:34:10.481Z,100295.63
2023-01-07T21:36:39.045Z,100299.47
2023-01-07T21:39:07.672Z,100301.56
2023-01-07T21:41:35.168Z,100296.81
2023-01-07T21:44:13.355Z,100291.84
2023-01-07T21:46:41.025Z,100292.34
2023-01-07T21:49:08.717Z,100291.75
2023-01-07T21:51:36.304Z,100294.38
2023-01-07T21:54:03.940Z,100293.38
2023-01-07T21:56:32.982Z,100298.03
2023-01-07T21:59:00.883Z,100286.13
2023-01-07T22:01:31.462Z,100302.34
2023-01-07T22:04:00.657Z,100291.38
2023-01-07T22:06:32.163Z,100294.34
2023-01-07T22:09:05.908Z,100289.75
2023-01-07T22:11:35.726Z,100289.25
2023-01-07T22:14:03.530Z,100284.97
2023-01-07T22:16:34.295Z,100286.66
2023-01-07T22:19:01.956Z,100281.13
2023-01-07T22:21:30.333Z,100278.22
2023-01-07T22:23:57.870Z,100275.94
2023-01-07T22:26:25.307Z,100277.84
2023-01-07T22:28:56.436Z,100276.94
2023-01-07T22:31:31.278Z,100276.59
2023-01-07T22:33:59.082Z,100268.81
2023-01-07T22:36:39.768Z,100263.88
2023-01-07T22:39:23.259Z,100267.34
2023-01-07T22:41:56.385Z,100258.97
2023-01-07T22:44:37.903Z,100259.53
2023-01-07T22:47:09.187Z,100258.91
2023-01-07T22:49:37.290Z,100264.06
2023-01-07T22:52:05.741Z,100263.38
2023-01-07T22:54:33.876Z,100253.44
2023-01-07T22:57:02.123Z,100253.25
2023-01-07T22:59:30.115Z,100253.06
2023-01-07T23:01:57.959Z,100244.81
2023-01-07T23:04:25.515Z,100243.09
2023-01-07T23:06:53.075Z,100236.03
2023-01-07T23:09:21.055Z,100235.97
2023-01-07T23:11:48.516Z,100232.47
2023-01-07T23:14:21.903Z,100232.78
2023-01-07T23:16:51.167Z,100231.41
2023-01-07T23:19:20.283Z,100235.72
2023-01-07T23:21:51.594Z,100238.06
2023-01-07T23:24:20.037Z,100237.06
2023-01-07T23:26:52.353Z,100228.03
2023-01-07T23:29:20.976Z,100229.44
2023-01-07T23:31:48.758Z,100232.25
2023-01-07T23:34:17.152Z,100225.81
2023-01-07T23:36:44.932Z,100232.91
2023-01-07T23:39:13.019Z,100230.91
2023-01-07T23:41:40.499Z,100230.75
2023-01-07T23:44:08.225Z,100229.72
2023-01-07T23:46:35.750Z,100227.66
2023-01-07T23:49:03.337Z,100226.53
2023-01-07T23:51:30.848Z,100229.91
2023-01-07T23:53:58.931Z,100223.31
2023-01-07T23:56:26.396Z,100226.31
2023-01-07T23:58:56.315Z,100226.50
